createdAt,value
2022-08-17T00:01:52.039Z,88.20
2022-08-17T00:04:22.183Z,87.80
2022-08-17T00:06:53.657Z,87.60
2022-08-17T00:09:22.477Z,87.70
2022-08-17T00:12:42.317Z,88.00
2022-08-17T00:14:40.062Z,87.60
2022-08-17T00:17:10.426Z,87.50
2022-08-17T00:19:39.642Z,87.60
2022-08-17T00:22:31.530Z,87.30
2022-08-17T00:24:57.205Z,87.70
2022-08-17T00:27:26.077Z,87.00
2022-08-17T00:29:54.846Z,87.00
2022-08-17T00:33:13.794Z,86.70
2022-08-17T00:35:19.306Z,86.60
2022-08-17T00:37:48.156Z,87.50
2022-08-17T00:40:17.712Z,87.90
2022-08-17T00:42:48.204Z,88.50
2022-08-17T00:45:20.482Z,89.20
2022-08-17T00:47:50.926Z,88.70
2022-08-17T00:50:21.355Z,89.30
2022-08-17T00:52:55.278Z,89.70
2022-08-17T00:55:25.803Z,90.10
2022-08-17T00:57:58.867Z,90.40
2022-08-17T01:00:30.721Z,90.60
2022-08-17T01:03:06.491Z,91.00
2022-08-17T01:05:42.407Z,90.60
2022-08-17T01:08:14.626Z,90.90
2022-08-17T01:10:58.921Z,90.40
2022-08-17T01:13:39.721Z,90.40
2022-08-17T01:16:16.825Z,90.70
2022-08-17T01:18:50.815Z,90.90
2022-08-17T01:21:28.341Z,91.10
2022-08-17T01:23:59.232Z,91.70
2022-08-17T01:26:29.513Z,91.80
2022-08-17T01:28:58.350Z,91.90
2022-08-17T01:31:31.627Z,92.20
2022-08-17T01:34:02.199Z,92.30
2022-08-17T01:36:31.494Z,92.10
2022-08-17T01:39:02.069Z,92.30
2022-08-17T01:41:31.282Z,92.10
2022-08-17T01:44:03.855Z,92.10
2022-08-17T01:46:36.074Z,92.10
2022-08-17T01:49:07.929Z,92.50
2022-08-17T01:51:36.509Z,92.60
2022-08-17T01:54:09.790Z,93.00
2022-08-17T01:56:43.322Z,93.30
2022-08-17T01:59:16.626Z,93.60
2022-08-17T02:01:45.801Z,93.90
2022-08-17T02:04:15.202Z,94.10
2022-08-17T02:06:52.533Z,94.10
2022-08-17T02:09:25.791Z,94.40
2022-08-17T02:11:56.407Z,94.80
2022-08-17T02:14:26.158Z,94.90
2022-08-17T02:16:56.289Z,94.80
2022-08-17T02:19:25.116Z,94.50
2022-08-17T02:21:56.929Z,94.20
2022-08-17T02:24:59.469Z,93.90
2022-08-17T02:27:19.483Z,93.80
2022-08-17T02:29:48.867Z,94.00
2022-08-17T02:32:27.193Z,94.30
2022-08-17T02:34:57.218Z,94.70
2022-08-17T02:37:26.745Z,94.90
2022-08-17T02:40:09.530Z,95.20
2022-08-17T02:42:41.234Z,95.60
2022-08-17T02:45:24.472Z,95.80
2022-08-17T02:47:54.424Z,96.10
2022-08-17T02:50:24.626Z,96.50
2022-08-17T02:53:02.503Z,96.50
2022-08-17T02:55:38.110Z,96.70
2022-08-17T02:58:07.375Z,96.80
2022-08-17T03:00:38.188Z,97.00
2022-08-17T03:03:09.075Z,97.10
2022-08-17T03:05:39.398Z,97.20
2022-08-17T03:08:13.115Z,97.50
2022-08-17T03:10:45.026Z,97.50
2022-08-17T03:13:15.106Z,97.70
2022-08-17T03:15:46.332Z,97.70
2022-08-17T03:18:24.257Z,97.70
2022-08-17T03:20:56.146Z,97.80
2022-08-17T03:23:25.616Z,97.50
2022-08-17T03:25:57.172Z,97.70
2022-08-17T03:28:26.714Z,97.60
2022-08-17T03:30:55.677Z,97.60
2022-08-17T03:33:24.660Z,98.00
2022-08-17T03:35:53.936Z,97.90
2022-08-17T03:38:22.450Z,98.00
2022-08-17T03:40:57.442Z,98.30
2022-08-17T03:43:31.462Z,98.60
2022-08-17T03:46:32.393Z,98.70
2022-08-17T03:49:23.240Z,98.90
2022-08-17T03:52:09.615Z,99.00
2022-08-17T03:54:56.248Z,99.10
2022-08-17T03:57:26.232Z,99.10
2022-08-17T03:59:57.619Z,99.10
2022-08-17T04:02:30.147Z,99.20
2022-08-17T04:04:59.626Z,99.30
2022-08-17T04:07:31.469Z,99.50
2022-08-17T04:10:00.813Z,99.60
2022-08-17T04:12:44.177Z,99.70
2022-08-17T04:15:15.255Z,99.80
2022-08-17T04:17:44.913Z,99.90
2022-08-17T04:20:15.393Z,99.90
2022-08-17T04:22:58.265Z,99.90
2022-08-17T04:25:27.812Z,99.90
2022-08-17T04:27:57.118Z,99.90
2022-08-17T04:30:28.521Z,99.90
2022-08-17T04:33:05.977Z,99.90
2022-08-17T04:35:52.901Z,99.90
2022-08-17T04:38:24.134Z,99.90
2022-08-17T04:41:11.228Z,99.40
2022-08-17T04:43:41.868Z,99.00
2022-08-17T04:46:16.274Z,98.90
2022-08-17T04:48:47.706Z,99.00
2022-08-17T04:51:18.374Z,98.70
2022-08-17T04:53:53.851Z,98.30
2022-08-17T04:56:29.025Z,98.40
2022-08-17T04:58:59.811Z,98.30
2022-08-17T05:01:32.643Z,98.30
2022-08-17T05:04:32.947Z,98.20
2022-08-17T05:06:54.801Z,98.00
2022-08-17T05:09:23.912Z,96.70
2022-08-17T05:11:53.239Z,96.90
2022-08-17T05:14:33.069Z,96.80
2022-08-17T05:17:07.433Z,96.70
2022-08-17T05:19:41.720Z,95.80
2022-08-17T05:22:15.098Z,95.90
2022-08-17T05:24:53.879Z,95.50
2022-08-17T05:27:29.896Z,95.50
2022-08-17T05:30:04.160Z,95.40
2022-08-17T05:32:39.145Z,95.50
2022-08-17T05:35:10.112Z,95.50
2022-08-17T05:37:39.277Z,95.40
2022-08-17T05:40:10.167Z,95.30
2022-08-17T05:42:39.412Z,95.10
2022-08-17T05:45:08.666Z,94.40
2022-08-17T05:47:40.305Z,94.10
2022-08-17T05:50:10.377Z,94.30
2022-08-17T05:52:49.055Z,94.30
2022-08-17T05:55:32.074Z,94.20
2022-08-17T05:58:10.695Z,93.80
2022-08-17T06:00:46.515Z,93.80
2022-08-17T06:03:35.730Z,93.60
2022-08-17T06:06:18.519Z,93.40
2022-08-17T06:08:53.404Z,91.70
2022-08-17T06:11:30.199Z,90.10
2022-08-17T06:14:10.571Z,89.10
2022-08-17T06:16:42.541Z,88.40
2022-08-17T06:19:20.349Z,87.90
2022-08-17T06:21:52.780Z,87.00
2022-08-17T06:24:29.849Z,86.40
2022-08-17T06:27:08.160Z,85.70
2022-08-17T06:29:50.929Z,85.00
2022-08-17T06:32:19.796Z,84.30
2022-08-17T06:34:50.409Z,83.50
2022-08-17T06:37:35.590Z,83.10
2022-08-17T06:40:20.563Z,82.90
2022-08-17T06:43:05.283Z,82.00
2022-08-17T06:45:39.373Z,81.30
2022-08-17T06:48:14.770Z,81.00
2022-08-17T06:50:51.438Z,80.90
2022-08-17T06:53:26.786Z,80.60
2022-08-17T06:56:01.876Z,80.50
2022-08-17T06:58:33.592Z,80.40
2022-08-17T07:01:11.923Z,80.70
2022-08-17T07:03:47.525Z,81.00
2022-08-17T07:06:22.720Z,81.30
2022-08-17T07:08:57.047Z,81.60
2022-08-17T07:11:29.217Z,81.80
2022-08-17T07:14:17.178Z,81.80
2022-08-17T07:16:50.110Z,81.70
2022-08-17T07:19:23.085Z,82.00
2022-08-17T07:21:59.012Z,82.20
2022-08-17T07:24:37.473Z,82.70
2022-08-17T07:27:14.548Z,82.60
2022-08-17T07:29:48.325Z,82.90
2022-08-17T07:32:20.581Z,83.00
2022-08-17T07:35:11.725Z,83.50
2022-08-17T07:37:44.893Z,83.40
2022-08-17T07:40:35.752Z,83.70
2022-08-17T07:43:24.449Z,84.00
2022-08-17T07:46:23.048Z,83.50
2022-08-17T07:48:54.106Z,83.70
2022-08-17T07:51:27.011Z,83.30
2022-08-17T07:54:13.667Z,83.10
2022-08-17T07:56:46.494Z,83.50
2022-08-17T07:59:23.201Z,83.20
2022-08-17T08:02:21.697Z,82.90
2022-08-17T08:05:06.662Z,83.20
2022-08-17T08:07:42.782Z,82.30
2022-08-17T08:10:17.022Z,82.40
2022-08-17T08:12:47.566Z,82.10
2022-08-17T08:15:20.110Z,81.90
2022-08-17T08:17:53.532Z,81.80
2022-08-17T08:20:52.167Z,81.30
2022-08-17T08:23:27.362Z,81.20
2022-08-17T08:26:09.272Z,81.00
2022-08-17T08:28:50.470Z,81.20
2022-08-17T08:31:26.211Z,81.50
2022-08-17T08:34:09.346Z,81.80
2022-08-17T08:37:14.712Z,80.80
2022-08-17T08:39:57.918Z,80.80
2022-08-17T08:42:35.895Z,80.70
2022-08-17T08:45:13.820Z,80.80
2022-08-17T08:48:05.575Z,81.10
2022-08-17T08:50:47.837Z,80.90
2022-08-17T08:53:31.554Z,81.20
2022-08-17T08:56:07.975Z,81.10
2022-08-17T08:58:48.645Z,81.50
2022-08-17T09:01:25.188Z,81.10
2022-08-17T09:04:25.414Z,81.50
2022-08-17T09:07:06.642Z,81.80
2022-08-17T09:09:47.195Z,82.10
2022-08-17T09:12:28.644Z,82.10
2022-08-17T09:15:07.155Z,81.80
2022-08-17T09:17:43.673Z,82.10
2022-08-17T09:20:28.245Z,82.30
2022-08-17T09:23:04.680Z,82.70
2022-08-17T09:25:38.628Z,82.90
2022-08-17T09:28:10.493Z,82.70
2022-08-17T09:30:46.725Z,82.80
2022-08-17T09:33:23.241Z,82.80
2022-08-17T09:35:58.457Z,83.10
2022-08-17T09:38:35.402Z,83.80
2022-08-17T09:41:13.619Z,84.00
2022-08-17T09:43:48.237Z,83.50
2022-08-17T09:46:23.483Z,83.70
2022-08-17T09:48:59.177Z,83.70
2022-08-17T09:51:33.936Z,84.10
2022-08-17T09:54:34.857Z,84.00
2022-08-17T09:57:27.837Z,84.10
2022-08-17T10:00:13.430Z,84.40
2022-08-17T10:03:16.670Z,84.60
2022-08-17T10:05:56.286Z,84.80
2022-08-17T10:08:34.177Z,84.60
2022-08-17T10:11:18.603Z,85.00
2022-08-17T10:13:59.518Z,85.10
2022-08-17T10:16:37.401Z,85.30
2022-08-17T10:19:17.387Z,85.90
2022-08-17T10:22:32.961Z,86.20
2022-08-17T10:25:23.459Z,86.20
2022-08-17T10:27:59.422Z,86.30
2022-08-17T10:30:32.611Z,86.50
2022-08-17T10:33:04.458Z,87.00
2022-08-17T10:35:39.477Z,86.60
2022-08-17T10:38:31.504Z,87.00
2022-08-17T10:41:05.406Z,87.40
2022-08-17T10:43:55.755Z,87.30
2022-08-17T10:46:57.627Z,87.60
2022-08-17T10:49:34.201Z,88.20
2022-08-17T10:52:29.997Z,88.40
2022-08-17T10:55:16.424Z,88.60
2022-08-17T10:57:47.774Z,88.70
2022-08-17T11:01:12.884Z,89.10
2022-08-17T11:03:54.886Z,89.40
2022-08-17T11:06:33.497Z,89.60
2022-08-17T11:09:29.955Z,89.80
2022-08-17T11:12:13.178Z,90.00
2022-08-17T11:14:54.896Z,90.70
2022-08-17T11:17:42.163Z,90.90
2022-08-17T11:20:26.383Z,91.30
2022-08-17T11:23:35.603Z,91.30
2022-08-17T11:26:26.370Z,91.30
2022-08-17T11:29:00.394Z,91.10
2022-08-17T11:31:38.872Z,91.20
2022-08-17T11:34:19.001Z,91.60
2022-08-17T11:37:12.991Z,91.80
2022-08-17T11:40:15.969Z,91.60
2022-08-17T11:43:04.853Z,91.00
2022-08-17T11:46:02.609Z,89.90
2022-08-17T11:48:56.929Z,89.30
2022-08-17T11:51:46.654Z,88.30
2022-08-17T11:54:45.202Z,87.70
2022-08-17T11:58:06.132Z,86.20
2022-08-17T12:01:02.211Z,84.80
2022-08-17T12:03:58.817Z,83.40
2022-08-17T12:06:51.695Z,83.00
2022-08-17T12:09:24.934Z,81.70
2022-08-17T12:12:11.710Z,81.10
2022-08-17T12:15:09.535Z,81.30
2022-08-17T12:17:40.892Z,80.70
2022-08-17T12:20:15.251Z,80.50
2022-08-17T12:22:57.693Z,80.00
2022-08-17T12:25:33.844Z,79.50
2022-08-17T12:28:05.682Z,80.30
2022-08-17T12:30:36.629Z,80.80
2022-08-17T12:33:25.450Z,82.40
2022-08-17T12:36:04.245Z,83.80
2022-08-17T12:38:35.026Z,83.30
2022-08-17T12:41:27.013Z,82.60
2022-08-17T12:44:02.022Z,83.70
2022-08-17T12:46:35.314Z,83.90
2022-08-17T12:49:24.772Z,82.40
2022-08-17T12:52:01.833Z,81.50
2022-08-17T12:54:34.827Z,78.50
2022-08-17T12:57:11.205Z,76.80
2022-08-17T12:59:45.179Z,76.30
2022-08-17T13:02:23.442Z,74.60
2022-08-17T13:04:55.621Z,73.00
2022-08-17T13:07:32.471Z,73.30
2022-08-17T13:10:01.570Z,72.90
2022-08-17T13:12:35.525Z,73.80
2022-08-17T13:15:05.171Z,76.20
2022-08-17T13:17:38.324Z,78.70
2022-08-17T13:20:16.649Z,79.00
2022-08-17T13:22:53.633Z,78.60
2022-08-17T13:25:25.311Z,77.20
2022-08-17T13:27:56.713Z,76.60
2022-08-17T13:30:30.154Z,74.80
2022-08-17T13:33:04.695Z,72.80
2022-08-17T13:35:49.923Z,72.70
2022-08-17T13:38:38.221Z,74.50
2022-08-17T13:41:38.573Z,73.90
2022-08-17T13:44:33.551Z,74.90
2022-08-17T13:47:04.484Z,74.90
2022-08-17T13:49:42.004Z,75.70
2022-08-17T13:52:38.396Z,76.20
2022-08-17T13:55:10.654Z,77.20
2022-08-17T13:57:47.025Z,79.90
2022-08-17T14:00:21.279Z,81.60
2022-08-17T14:02:50.697Z,82.30
2022-08-17T14:05:20.772Z,83.70
2022-08-17T14:07:56.237Z,84.10
2022-08-17T14:10:29.071Z,84.30
2022-08-17T14:13:01.904Z,85.00
2022-08-17T14:18:18.402Z,78.20
2022-08-17T14:21:08.699Z,78.70
2022-08-17T14:23:39.920Z,80.00
2022-08-17T14:26:13.282Z,80.30
2022-08-17T14:28:56.433Z,81.00
2022-08-17T14:31:28.632Z,81.70
2022-08-17T14:33:59.139Z,81.70
2022-08-17T14:36:28.853Z,82.30
2022-08-17T14:39:00.117Z,83.00
2022-08-17T14:41:29.787Z,83.10
2022-08-17T14:44:12.002Z,80.90
2022-08-17T14:46:42.966Z,78.90
2022-08-17T14:49:19.825Z,76.00
2022-08-17T14:52:13.396Z,74.00
2022-08-17T14:54:45.951Z,76.00
2022-08-17T14:57:32.931Z,76.40
2022-08-17T15:00:31.392Z,77.60
2022-08-17T15:03:02.758Z,77.30
2022-08-17T15:05:48.383Z,74.80
2022-08-17T15:08:19.065Z,71.60
2022-08-17T15:14:39.179Z,68.90
2022-08-17T15:17:16.172Z,66.50
2022-08-17T15:19:55.769Z,68.20
2022-08-17T15:22:34.246Z,67.20
2022-08-17T15:25:07.870Z,64.90
2022-08-17T15:27:52.661Z,65.30
2022-08-17T15:30:38.543Z,65.60
2022-08-17T15:39:09.620Z,66.30
2022-08-17T15:48:48.330Z,67.30
2022-08-17T15:51:28.914Z,67.20
2022-08-17T15:55:12.074Z,68.20
2022-08-17T15:58:19.312Z,68.70
2022-08-17T16:19:51.400Z,66.30
2022-08-17T16:22:31.842Z,67.50
2022-08-17T16:25:04.156Z,69.20
2022-08-17T16:27:35.764Z,69.90
2022-08-17T16:30:05.519Z,70.50
2022-08-17T16:32:34.523Z,69.80
2022-08-17T16:35:04.660Z,69.80
2022-08-17T16:37:34.968Z,69.70
2022-08-17T16:40:07.691Z,70.50
2022-08-17T16:42:39.871Z,70.30
2022-08-17T16:45:13.269Z,71.30
2022-08-17T16:47:43.760Z,74.20
2022-08-17T16:50:14.079Z,75.90
2022-08-17T16:52:44.177Z,76.40
2022-08-17T16:55:13.931Z,77.30
2022-08-17T16:57:47.221Z,77.00
2022-08-17T17:00:21.239Z,76.50
2022-08-17T17:02:51.023Z,77.20
2022-08-17T17:05:33.226Z,77.90
2022-08-17T17:08:08.228Z,77.50
2022-08-17T17:10:42.203Z,78.50
2022-08-17T17:13:21.201Z,79.70
2022-08-17T17:15:57.248Z,80.40
2022-08-17T17:18:38.808Z,81.50
2022-08-17T17:21:14.189Z,82.80
2022-08-17T17:23:52.067Z,84.00
2022-08-17T17:26:38.901Z,83.50
2022-08-17T17:29:25.943Z,83.70
2022-08-17T17:32:06.424Z,84.30
2022-08-17T17:34:41.818Z,85.30
2022-08-17T17:37:16.105Z,86.00
2022-08-17T17:39:50.628Z,85.90
2022-08-17T17:42:23.886Z,86.10
2022-08-17T17:45:01.542Z,86.30
2022-08-17T17:47:31.640Z,86.70
2022-08-17T17:50:05.281Z,86.70
2022-08-17T17:52:41.276Z,86.70
2022-08-17T17:55:25.015Z,86.70
2022-08-17T17:58:04.584Z,87.00
2022-08-17T18:01:21.716Z,87.00
2022-08-17T18:04:17.573Z,87.10
2022-08-17T18:07:00.987Z,87.70
2022-08-17T18:18:03.748Z,88.80
2022-08-17T18:21:14.887Z,89.40
2022-08-17T18:26:14.583Z,89.90
2022-08-17T18:32:01.915Z,90.50
2022-08-17T18:35:35.552Z,91.10
2022-08-17T18:39:28.822Z,91.60
2022-08-17T18:42:52.468Z,91.90
2022-08-17T18:46:29.995Z,92.40
2022-08-17T18:52:56.762Z,93.00
2022-08-17T18:55:49.558Z,93.40
2022-08-17T19:02:24.224Z,94.00
2022-08-17T19:05:42.617Z,94.30
2022-08-17T19:13:31.673Z,94.70
2022-08-17T19:16:33.871Z,94.60
2022-08-17T19:28:04.675Z,94.50
2022-08-17T19:31:18.284Z,94.70
2022-08-17T19:34:49.329Z,94.70
2022-08-17T19:43:06.483Z,95.00
2022-08-17T19:52:29.766Z,96.30
2022-08-17T20:00:22.042Z,97.30
2022-08-17T20:15:04.990Z,98.10
2022-08-17T20:18:47.587Z,98.60
2022-08-17T20:22:16.467Z,98.90
2022-08-17T20:25:05.422Z,99.80
2022-08-17T20:36:53.638Z,99.90
2022-08-17T20:40:22.004Z,99.90
2022-08-17T20:47:50.453Z,99.90
2022-08-17T20:55:52.338Z,99.90
2022-08-17T21:07:43.019Z,99.90
2022-08-17T21:09:34.370Z,99.90
2022-08-17T21:12:19.742Z,99.90
2022-08-17T21:15:28.482Z,99.90
2022-08-17T21:18:16.655Z,99.90
2022-08-17T21:21:04.434Z,99.90
2022-08-17T21:24:20.984Z,99.90
2022-08-17T21:27:01.622Z,99.90
2022-08-17T21:29:40.235Z,99.90
2022-08-17T21:32:40.490Z,99.90
2022-08-17T21:35:53.952Z,99.90
2022-08-17T21:38:46.895Z,99.90
2022-08-17T21:41:42.327Z,99.90
2022-08-17T21:44:22.115Z,99.90
2022-08-17T21:46:54.004Z,99.90
2022-08-17T21:49:34.966Z,99.90
2022-08-17T21:52:15.943Z,99.90
2022-08-17T21:55:00.239Z,99.90
2022-08-17T21:57:38.903Z,99.90
2022-08-17T22:00:17.262Z,99.90
2022-08-17T22:03:00.496Z,99.90
2022-08-17T22:05:51.154Z,99.90
2022-08-17T22:17:50.300Z,99.90
2022-08-17T22:20:29.943Z,99.90
2022-08-17T22:23:32.454Z,99.90
2022-08-17T22:26:04.279Z,99.90
2022-08-17T22:28:46.301Z,99.90
2022-08-17T22:31:17.022Z,99.90
2022-08-17T22:33:49.620Z,99.90
2022-08-17T22:36:25.238Z,99.90
2022-08-17T22:38:56.589Z,99.90
2022-08-17T22:41:41.682Z,99.90
2022-08-17T22:44:20.805Z,99.90
2022-08-17T22:46:54.523Z,99.90
2022-08-17T22:49:29.457Z,99.90
2022-08-17T22:52:04.505Z,99.90
2022-08-17T22:54:50.642Z,99.90
2022-08-17T22:57:51.705Z,99.90
2022-08-17T23:00:34.674Z,99.90
2022-08-17T23:03:10.664Z,99.90
2022-08-17T23:05:45.111Z,99.90
2022-08-17T23:08:14.608Z,99.90
2022-08-17T23:10:45.476Z,99.90
2022-08-17T23:13:14.008Z,99.90
2022-08-17T23:15:43.179Z,99.90
2022-08-17T23:18:12.112Z,99.90
2022-08-17T23:20:42.787Z,99.90
2022-08-17T23:23:12.671Z,99.90
2022-08-17T23:25:44.745Z,99.90
2022-08-17T23:28:13.728Z,99.90
2022-08-17T23:30:45.153Z,99.90
2022-08-17T23:33:21.395Z,99.90
2022-08-17T23:35:51.260Z,99.90
2022-08-17T23:38:19.830Z,99.90
2022-08-17T23:40:48.290Z,99.90
2022-08-17T23:43:25.255Z,99.90
2022-08-17T23:45:59.726Z,99.90
2022-08-17T23:48:35.640Z,99.90
2022-08-17T23:51:11.645Z,99.90
2022-08-17T23:53:46.480Z,99.90
2022-08-17T23:56:15.789Z,99.90
2022-08-17T23:58:46.361Z,99.90
